createdAt,value
2018-11-21T00:04:43.657Z,13.27
2018-11-21T00:07:24.809Z,13.33
2018-11-21T00:10:05.676Z,13.23
2018-11-21T00:12:54.287Z,14.20
2018-11-21T00:18:44.184Z,13.77
2018-11-21T00:21:28.380Z,13.23
2018-11-21T00:27:12.453Z,12.87
2018-11-21T00:29:53.405Z,12.80
2018-11-21T00:32:53.308Z,13.43
2018-11-21T00:35:35.585Z,13.43
2018-11-21T00:38:19.295Z,14.27
2018-11-21T00:41:00.362Z,13.43
2018-11-21T00:43:46.884Z,13.50
2018-11-21T00:46:27.990Z,14.13
2018-11-21T00:49:09.031Z,14.57
2018-11-21T00:51:54.328Z,14.37
2018-11-21T00:54:57.462Z,14.10
2018-11-21T00:57:37.951Z,14.40
2018-11-21T01:00:18.409Z,14.80
2018-11-21T01:02:59.686Z,15.73
2018-11-21T01:05:40.562Z,15.10
2018-11-21T01:08:22.166Z,14.37
2018-11-21T01:11:03.265Z,15.73
2018-11-21T01:13:51.913Z,14.83
2018-11-21T01:16:36.928Z,16.10
2018-11-21T01:28:10.112Z,15.00
2018-11-21T01:34:17.722Z,15.20
2018-11-21T01:37:06.026Z,13.03
2018-11-21T01:39:53.862Z,15.47
2018-11-21T01:46:08.299Z,14.30
2018-11-21T01:49:15.492Z,14.87
2018-11-21T02:05:09.356Z,14.97
2018-11-21T02:08:00.712Z,16.83
2018-11-21T02:10:49.018Z,15.63
2018-11-21T02:13:40.233Z,15.70
2018-11-21T02:16:47.727Z,16.53
2018-11-21T02:23:02.679Z,17.20
2018-11-21T02:25:51.580Z,17.37
2018-11-21T02:31:46.757Z,16.53
2018-11-21T02:34:35.263Z,16.60
2018-11-21T02:41:29.830Z,16.67
2018-11-21T02:43:37.311Z,16.90
2018-11-21T02:47:04.115Z,16.63
2018-11-21T02:50:12.185Z,17.30
2018-11-21T02:53:03.297Z,16.07
2018-11-21T02:55:51.588Z,16.43
2018-11-21T02:58:45.835Z,18.53
2018-11-21T03:01:34.045Z,16.40
2018-11-21T03:04:22.119Z,18.10
2018-11-21T03:07:13.060Z,17.33
2018-11-21T03:10:01.250Z,18.07
2018-11-21T03:12:49.251Z,17.33
2018-11-21T03:15:37.643Z,17.53
2018-11-21T03:24:45.489Z,18.17
2018-11-21T03:34:14.903Z,17.40
2018-11-21T03:37:22.087Z,16.73
2018-11-21T03:40:10.836Z,17.07
2018-11-21T03:46:30.984Z,18.57
2018-11-21T03:53:02.589Z,18.60
2018-11-21T03:55:50.828Z,16.70
2018-11-21T03:58:46.466Z,17.13
2018-11-21T04:01:37.474Z,16.87
2018-11-21T04:04:25.677Z,17.50
2018-11-21T04:07:35.176Z,17.03
2018-11-21T04:10:26.051Z,17.30
2018-11-21T04:13:13.830Z,17.27
2018-11-21T04:16:04.322Z,16.83
2018-11-21T04:22:08.628Z,17.37
2018-11-21T04:25:04.377Z,17.93
2018-11-21T04:27:52.120Z,18.10
2018-11-21T04:30:59.515Z,18.43
2018-11-21T04:34:28.209Z,17.80
2018-11-21T04:40:26.428Z,17.40
2018-11-21T04:43:14.500Z,17.13
2018-11-21T04:46:02.455Z,17.37
2018-11-21T04:48:50.413Z,18.27
2018-11-21T04:51:53.862Z,19.60
2018-11-21T04:54:45.718Z,18.47
2018-11-21T04:57:56.174Z,18.10
2018-11-21T05:05:16.775Z,17.70
2018-11-21T05:10:28.606Z,18.30
2018-11-21T05:16:07.562Z,19.30
2018-11-21T05:19:10.653Z,18.30
2018-11-21T05:25:19.557Z,17.90
2018-11-21T05:28:07.644Z,19.43
2018-11-21T05:30:58.648Z,19.10
2018-11-21T05:33:46.561Z,17.43
2018-11-21T05:36:34.583Z,16.70
2018-11-21T05:39:22.620Z,17.63
2018-11-21T05:42:10.487Z,18.33
2018-11-21T05:44:58.324Z,19.20
2018-11-21T05:47:47.017Z,19.20
2018-11-21T05:50:34.996Z,19.13
2018-11-21T05:53:23.091Z,18.47
2018-11-21T05:56:13.649Z,18.30
2018-11-21T05:59:04.741Z,23.93
2018-11-21T06:01:52.653Z,20.50
2018-11-21T06:04:43.714Z,19.30
2018-11-21T06:07:31.416Z,20.73
2018-11-21T06:10:19.518Z,21.23
2018-11-21T06:13:10.929Z,27.53
2018-11-21T06:19:38.089Z,22.17
2018-11-21T06:22:26.136Z,19.07
2018-11-21T06:25:14.065Z,20.07
2018-11-21T06:28:01.804Z,18.03
2018-11-21T06:30:49.595Z,18.30
2018-11-21T06:33:37.457Z,18.30
2018-11-21T06:39:57.629Z,18.47
2018-11-21T06:43:05.053Z,19.97
2018-11-21T06:46:02.902Z,18.73
2018-11-21T06:48:54.174Z,19.27
2018-11-21T06:51:42.199Z,18.90
2018-11-21T06:54:30.065Z,18.30
2018-11-21T06:57:18.089Z,17.77
2018-11-21T07:00:06.886Z,18.80
2018-11-21T07:02:55.056Z,18.40
2018-11-21T07:05:42.860Z,19.37
2018-11-21T07:08:30.806Z,19.80
2018-11-21T07:11:18.927Z,19.33
2018-11-21T07:14:07.312Z,19.20
2018-11-21T07:16:57.178Z,20.83
2018-11-21T07:19:45.200Z,18.37
2018-11-21T07:22:33.148Z,19.03
2018-11-21T07:25:21.794Z,20.07
2018-11-21T07:28:13.096Z,19.23
2018-11-21T07:30:57.677Z,21.27
2018-11-21T07:33:46.654Z,25.30
2018-11-21T07:36:33.805Z,20.63
2018-11-21T07:39:21.533Z,20.37
2018-11-21T07:42:09.281Z,20.50
2018-11-21T07:44:57.317Z,19.20
2018-11-21T07:47:47.868Z,19.10
2018-11-21T07:50:35.692Z,19.70
2018-11-21T07:53:23.445Z,19.00
2018-11-21T07:56:30.682Z,19.70
2018-11-21T07:59:18.443Z,19.63
2018-11-21T08:02:11.017Z,18.10
2018-11-21T08:05:03.327Z,18.67
2018-11-21T08:07:56.214Z,18.87
2018-11-21T08:11:03.203Z,20.30
2018-11-21T08:14:10.198Z,18.87
2018-11-21T08:17:17.212Z,19.60
2018-11-21T08:20:24.821Z,17.73
2018-11-21T08:23:31.742Z,18.37
2018-11-21T08:26:38.745Z,19.53
2018-11-21T08:29:26.529Z,19.60
2018-11-21T08:32:14.242Z,20.90
2018-11-21T08:35:02.357Z,20.63
2018-11-21T08:37:50.143Z,19.70
2018-11-21T08:40:37.895Z,21.73
2018-11-21T08:43:25.920Z,20.90
2018-11-21T08:46:13.616Z,21.97
2018-11-21T08:49:01.428Z,20.87
2018-11-21T08:51:49.170Z,21.07
2018-11-21T08:54:36.888Z,18.93
2018-11-21T08:57:24.695Z,19.77
2018-11-21T09:00:12.975Z,20.83
2018-11-21T09:03:00.703Z,19.13
2018-11-21T09:05:48.450Z,17.63
2018-11-21T09:08:36.174Z,20.43
2018-11-21T09:11:24.037Z,19.40
2018-11-21T09:14:11.740Z,18.93
2018-11-21T09:16:59.523Z,18.90
2018-11-21T09:19:47.289Z,18.37
2018-11-21T09:22:35.112Z,18.53
2018-11-21T09:25:23.282Z,19.27
2018-11-21T09:28:11.430Z,19.83
2018-11-21T09:30:59.206Z,19.30
2018-11-21T09:33:47.181Z,18.17
2018-11-21T09:36:34.961Z,27.73
2018-11-21T09:39:22.676Z,25.57
2018-11-21T09:42:10.720Z,26.80
2018-11-21T09:44:58.522Z,21.47
2018-11-21T09:47:46.389Z,21.40
2018-11-21T09:50:34.577Z,19.50
2018-11-21T09:53:22.339Z,22.33
2018-11-21T09:56:10.072Z,21.40
2018-11-21T09:58:57.863Z,23.03
2018-11-21T10:02:06.996Z,18.33
2018-11-21T10:04:54.802Z,21.10
2018-11-21T10:08:02.762Z,20.33
2018-11-21T10:10:50.554Z,20.47
2018-11-21T10:13:38.504Z,20.83
2018-11-21T10:16:26.413Z,19.20
2018-11-21T10:19:14.245Z,21.33
2018-11-21T10:22:02.036Z,21.20
2018-11-21T10:24:50.005Z,20.63
2018-11-21T10:27:37.796Z,19.97
2018-11-21T10:30:25.726Z,21.30
2018-11-21T10:33:13.816Z,20.67
2018-11-21T10:38:55.711Z,19.87
2018-11-21T10:41:43.610Z,19.37
2018-11-21T10:44:31.373Z,20.50
2018-11-21T10:47:19.320Z,18.90
2018-11-21T10:50:07.466Z,19.90
2018-11-21T10:52:55.277Z,18.27
2018-11-21T10:55:23.528Z,19.17
2018-11-21T10:57:51.797Z,19.87
2018-11-21T11:00:38.214Z,18.93
2018-11-21T11:03:08.874Z,19.80
2018-11-21T11:06:05.537Z,19.70
2018-11-21T11:08:53.551Z,20.00
2018-11-21T11:11:39.672Z,18.37
2018-11-21T11:14:25.648Z,18.70
2018-11-21T11:17:11.625Z,19.03
2018-11-21T11:20:10.856Z,18.17
2018-11-21T11:23:04.321Z,18.90
2018-11-21T11:25:54.321Z,18.40
2018-11-21T11:28:47.669Z,18.97
2018-11-21T11:31:35.110Z,17.83
2018-11-21T11:34:22.549Z,18.53
2018-11-21T11:37:28.426Z,19.17
2018-11-21T11:40:28.023Z,18.70
2018-11-21T11:43:16.091Z,20.17
2018-11-21T11:46:07.203Z,20.40
2018-11-21T11:48:53.247Z,18.93
2018-11-21T11:51:48.397Z,19.27
2018-11-21T11:54:45.092Z,20.30
2018-11-21T11:57:44.524Z,18.97
2018-11-21T12:00:37.733Z,17.93
2018-11-21T12:03:25.403Z,17.73
2018-11-21T12:06:11.873Z,19.40
2018-11-21T12:08:58.233Z,19.23
2018-11-21T12:11:50.677Z,19.23
2018-11-21T12:14:39.448Z,17.43
2018-11-21T12:17:26.878Z,18.70
2018-11-21T12:20:13.331Z,18.47
2018-11-21T12:23:15.867Z,18.87
2018-11-21T12:26:11.790Z,17.90
2018-11-21T12:28:59.214Z,20.27
2018-11-21T12:31:45.465Z,19.33
2018-11-21T12:34:31.994Z,19.17
2018-11-21T12:37:17.955Z,19.40
2018-11-21T12:40:05.371Z,18.57
2018-11-21T12:43:01.586Z,18.37
2018-11-21T12:45:48.988Z,18.30
2018-11-21T12:48:35.122Z,18.67
2018-11-21T12:51:21.428Z,18.00
2018-11-21T12:54:07.601Z,17.87
2018-11-21T12:57:03.302Z,20.07
2018-11-21T12:59:59.399Z,19.40
2018-11-21T13:02:49.388Z,20.30
2018-11-21T13:05:39.392Z,22.50
2018-11-21T13:08:20.658Z,20.27
2018-11-21T13:11:17.105Z,19.30
2018-11-21T13:14:05.150Z,19.17
2018-11-21T13:16:51.578Z,19.13
2018-11-21T13:19:37.749Z,17.33
2018-11-21T13:22:13.755Z,19.13
2018-11-21T13:25:10.273Z,17.73
2018-11-21T13:27:56.267Z,19.03
2018-11-21T13:30:49.191Z,21.60
2018-11-21T13:33:39.489Z,21.23
2018-11-21T13:36:25.686Z,20.73
2018-11-21T13:39:15.755Z,19.23
2018-11-21T13:42:01.696Z,18.80
2018-11-21T13:44:48.007Z,18.57
2018-11-21T13:47:35.230Z,17.23
2018-11-21T13:50:23.521Z,19.03
2018-11-21T13:53:16.919Z,17.73
2018-11-21T13:55:45.531Z,18.43
2018-11-21T13:58:13.808Z,19.57
2018-11-21T14:00:42.097Z,17.60
2018-11-21T14:03:10.495Z,17.57
2018-11-21T14:05:39.021Z,19.10
2018-11-21T14:08:07.311Z,18.07
2018-11-21T14:10:35.542Z,19.10
2018-11-21T14:13:03.856Z,19.27
2018-11-21T14:15:32.830Z,19.93
2018-11-21T14:18:00.441Z,19.13
2018-11-21T14:20:28.783Z,18.47
2018-11-21T14:22:57.118Z,19.20
2018-11-21T14:25:25.415Z,18.27
2018-11-21T14:27:53.708Z,19.67
2018-11-21T14:30:22.028Z,17.63
2018-11-21T14:32:50.333Z,19.40
2018-11-21T14:35:18.708Z,18.90
2018-11-21T14:37:46.978Z,17.63
2018-11-21T14:40:16.912Z,19.37
2018-11-21T14:42:45.190Z,20.27
2018-11-21T14:47:43.374Z,18.40
2018-11-21T14:50:20.256Z,19.00
2018-11-21T14:52:48.639Z,18.53
2018-11-21T14:55:16.892Z,19.27
2018-11-21T14:57:45.261Z,18.90
2018-11-21T15:00:16.349Z,18.67
2018-11-21T15:02:45.221Z,19.63
2018-11-21T15:05:14.043Z,18.90
2018-11-21T15:07:43.118Z,20.37
2018-11-21T15:10:12.181Z,19.67
2018-11-21T15:12:40.441Z,19.37
2018-11-21T15:15:14.503Z,22.07
2018-11-21T15:17:42.809Z,20.63
2018-11-21T15:20:13.820Z,21.03
2018-11-21T15:22:42.076Z,20.27
2018-11-21T15:25:12.681Z,20.03
2018-11-21T15:27:41.275Z,20.83
2018-11-21T15:30:15.440Z,23.53
2018-11-21T15:32:44.203Z,20.43
2018-11-21T15:35:12.576Z,19.73
2018-11-21T15:37:41.782Z,19.33
2018-11-21T15:40:12.255Z,19.87
2018-11-21T15:42:40.496Z,18.37
2018-11-21T15:45:11.003Z,20.17
2018-11-21T15:47:39.323Z,23.43
2018-11-21T15:50:11.300Z,23.87
2018-11-21T15:52:39.830Z,27.20
2018-11-21T15:55:09.786Z,25.67
2018-11-21T15:57:39.922Z,25.57
2018-11-21T16:00:16.287Z,24.83
2018-11-21T16:03:07.088Z,22.77
2018-11-21T16:05:38.250Z,23.83
2018-11-21T16:08:11.568Z,24.33
2018-11-21T16:10:41.501Z,24.73
2018-11-21T16:13:09.945Z,25.07
2018-11-21T16:15:59.833Z,23.83
2018-11-21T16:18:28.537Z,20.97
2018-11-21T16:20:57.024Z,19.30
2018-11-21T16:23:25.302Z,21.13
2018-11-21T16:25:53.946Z,18.73
2018-11-21T16:28:22.204Z,20.43
2018-11-21T16:30:50.510Z,19.00
2018-11-21T16:33:18.751Z,20.63
2018-11-21T16:35:47.309Z,18.07
2018-11-21T16:38:15.641Z,19.67
2018-11-21T16:40:43.859Z,19.17
2018-11-21T16:43:12.591Z,20.37
2018-11-21T16:45:45.755Z,19.87
2018-11-21T16:48:14.064Z,19.97
2018-11-21T16:50:42.330Z,22.13
2018-11-21T16:53:10.713Z,20.40
2018-11-21T16:55:38.936Z,19.80
2018-11-21T16:58:07.266Z,19.13
2018-11-21T17:00:35.532Z,19.37
2018-11-21T17:03:04.053Z,20.50
2018-11-21T17:05:32.368Z,19.33
2018-11-21T17:08:00.638Z,20.80
2018-11-21T17:10:30.032Z,19.50
2018-11-21T17:13:18.212Z,21.47
2018-11-21T17:15:46.503Z,18.67
2018-11-21T17:18:14.717Z,18.20
2018-11-21T17:20:44.177Z,20.00
2018-11-21T17:23:12.390Z,19.33
2018-11-21T17:25:41.265Z,18.87
2018-11-21T17:28:09.630Z,19.27
2018-11-21T17:30:37.909Z,20.23
2018-11-21T17:33:06.186Z,20.47
2018-11-21T17:35:34.710Z,21.57
2018-11-21T17:38:03.366Z,20.73
2018-11-21T17:40:34.530Z,20.07
2018-11-21T17:43:02.873Z,21.53
2018-11-21T17:45:31.282Z,22.40
2018-11-21T17:47:59.693Z,20.13
2018-11-21T17:50:28.413Z,19.80
2018-11-21T17:52:58.292Z,20.30
2018-11-21T17:55:28.065Z,21.03
2018-11-21T17:57:56.535Z,21.50
2018-11-21T18:00:26.310Z,19.10
2018-11-21T18:02:54.584Z,20.23
2018-11-21T18:05:24.603Z,20.30
2018-11-21T18:07:52.892Z,19.57
2018-11-21T18:10:23.080Z,23.57
2018-11-21T18:12:51.529Z,22.70
2018-11-21T18:15:21.211Z,23.13
2018-11-21T18:17:50.361Z,25.87
2018-11-21T18:20:19.197Z,31.37
2018-11-21T18:22:48.265Z,22.80
2018-11-21T18:25:18.290Z,21.17
2018-11-21T18:27:46.587Z,20.83
2018-11-21T18:30:16.980Z,20.83
2018-11-21T18:32:46.018Z,21.70
2018-11-21T18:35:15.785Z,21.57
2018-11-21T18:37:45.009Z,22.33
2018-11-21T18:40:15.336Z,20.63
2018-11-21T18:42:44.085Z,20.93
2018-11-21T18:45:19.181Z,22.17
2018-11-21T18:47:48.119Z,22.33
2018-11-21T18:50:18.891Z,20.50
2018-11-21T18:52:48.229Z,20.77
2018-11-21T18:55:19.767Z,18.37
2018-11-21T18:58:14.464Z,18.87
2018-11-21T19:00:44.758Z,18.97
2018-11-21T19:03:13.533Z,18.93
2018-11-21T19:05:42.022Z,18.73
2018-11-21T19:08:10.610Z,17.60
2018-11-21T19:10:40.126Z,18.53
2018-11-21T19:13:08.801Z,19.57
2018-11-21T19:15:37.428Z,17.90
2018-11-21T19:18:06.557Z,17.93
2018-11-21T19:20:35.148Z,18.93
2018-11-21T19:23:04.688Z,18.90
2018-11-21T19:25:33.265Z,17.13
2018-11-21T19:28:01.889Z,17.87
2018-11-21T19:30:31.797Z,22.83
2018-11-21T19:33:01.552Z,19.93
2018-11-21T19:35:33.066Z,21.10
2018-11-21T19:38:01.581Z,20.80
2018-11-21T19:40:30.393Z,23.47
2018-11-21T19:42:59.027Z,19.70
2018-11-21T19:45:27.599Z,16.50
2018-11-21T19:47:56.262Z,18.73
2018-11-21T19:50:25.218Z,18.33
2018-11-21T19:52:54.033Z,15.60
2018-11-21T19:55:24.835Z,17.43
2018-11-21T19:57:54.628Z,15.30
2018-11-21T20:00:27.317Z,15.37
2018-11-21T20:02:56.075Z,14.80
2018-11-21T20:05:24.671Z,14.07
2018-11-21T20:07:53.651Z,14.80
2018-11-21T20:10:22.865Z,14.83
2018-11-21T20:12:51.480Z,15.30
2018-11-21T20:15:21.784Z,14.73
2018-11-21T20:17:52.080Z,16.63
2018-11-21T20:20:21.365Z,15.03
2018-11-21T20:22:50.600Z,15.20
2018-11-21T20:25:20.126Z,14.87
2018-11-21T20:27:48.539Z,13.77
2018-11-21T20:30:19.226Z,14.57
2018-11-21T20:32:47.554Z,13.10
2018-11-21T20:35:16.270Z,15.60
2018-11-21T20:37:45.044Z,13.47
2018-11-21T20:40:15.773Z,12.30
2018-11-21T20:42:44.615Z,13.00
2018-11-21T20:45:18.053Z,12.53
2018-11-21T20:47:47.126Z,14.03
2018-11-21T20:50:15.971Z,14.27
2018-11-21T20:52:45.439Z,12.23
2018-11-21T20:55:14.366Z,13.37
2018-11-21T20:57:43.018Z,12.03
2018-11-21T21:00:14.463Z,12.07
2018-11-21T21:02:42.685Z,14.33
2018-11-21T21:05:12.317Z,14.73
2018-11-21T21:07:41.223Z,13.57
2018-11-21T21:10:11.508Z,12.67
2018-11-21T21:12:40.156Z,12.43
2018-11-21T21:15:09.785Z,12.43
2018-11-21T21:17:38.464Z,13.93
2018-11-21T21:20:09.353Z,11.67
2018-11-21T21:22:37.690Z,13.87
2018-11-21T21:25:08.117Z,12.70
2018-11-21T21:27:36.407Z,12.87
2018-11-21T21:30:07.301Z,13.70
2018-11-21T21:32:35.753Z,13.80
2018-11-21T21:35:04.851Z,13.10
2018-11-21T21:37:33.122Z,14.23
2018-11-21T21:40:01.544Z,15.37
2018-11-21T21:42:29.854Z,13.43
2018-11-21T21:44:58.168Z,15.33
2018-11-21T21:47:26.453Z,13.03
2018-11-21T21:50:02.585Z,13.73
2018-11-21T21:52:31.595Z,16.00
2018-11-21T21:55:00.075Z,16.50
2018-11-21T21:57:28.510Z,15.80
2018-11-21T21:59:56.734Z,15.50
2018-11-21T22:02:25.415Z,17.03
2018-11-21T22:04:53.951Z,16.17
2018-11-21T22:07:22.643Z,14.40
2018-11-21T22:09:50.969Z,16.33
2018-11-21T22:12:19.258Z,16.17
2018-11-21T22:14:47.531Z,15.60
2018-11-21T22:17:15.834Z,18.50
2018-11-21T22:19:44.051Z,16.90
2018-11-21T22:22:12.318Z,15.73
2018-11-21T22:24:41.372Z,14.37
2018-11-21T22:27:09.624Z,13.03
2018-11-21T22:29:37.862Z,13.97
2018-11-21T22:32:06.206Z,12.97
2018-11-21T22:34:34.467Z,14.07
2018-11-21T22:37:02.857Z,13.20
2018-11-21T22:39:31.116Z,14.37
2018-11-21T22:41:59.387Z,14.67
2018-11-21T22:44:27.652Z,13.97
2018-11-21T22:46:55.986Z,14.03
2018-11-21T22:49:24.209Z,14.40
2018-11-21T22:51:52.707Z,15.17
2018-11-21T22:54:21.036Z,14.07
2018-11-21T22:56:49.843Z,13.73
2018-11-21T22:59:18.236Z,13.07
2018-11-21T23:01:46.637Z,14.20
2018-11-21T23:04:14.949Z,15.77
2018-11-21T23:06:44.090Z,14.07
2018-11-21T23:09:13.366Z,15.23
2018-11-21T23:11:41.700Z,15.67
2018-11-21T23:14:10.161Z,14.63
2018-11-21T23:16:38.606Z,16.53
2018-11-21T23:19:06.881Z,15.40
2018-11-21T23:21:35.162Z,14.77
2018-11-21T23:24:03.389Z,15.57
2018-11-21T23:26:32.104Z,16.37
2018-11-21T23:29:00.755Z,15.97
2018-11-21T23:31:29.031Z,16.83
2018-11-21T23:33:57.295Z,16.43
2018-11-21T23:36:25.617Z,16.10
2018-11-21T23:38:53.923Z,16.63
2018-11-21T23:41:22.497Z,16.77
2018-11-21T23:43:50.831Z,16.70
2018-11-21T23:46:39.195Z,16.67
2018-11-21T23:49:08.618Z,17.00
2018-11-21T23:51:58.100Z,17.23
2018-11-21T23:57:34.806Z,17.30
